AirNav   Pilot Hours Calculator
 
 1068 users online  

01VA Pickles Airport
Berryville, Virginia, USA

GOING TO BERRYVILLE?


FAA INFORMATION EFFECTIVE 22 APRIL 2021

Location

FAA Identifier: 01VA
Lat/Long: 39-07-30.0000N 077-55-30.0000W
39-07.500000N 077-55.500000W
39.1250000,-77.9250000
(estimated)
Elevation: 500 ft. / 152 m (estimated)
Variation: 09W (1995)
From city: 3 miles SE of BERRYVILLE, VA
Time zone: UTC -4 (UTC -5 during Standard Time)
Zip code: 22611

Airport Operations

Airport use: Private use. Permission required prior to landing
Activation date: 07/1999
Control tower: no
ARTCC: WASHINGTON CENTER
FSS: LEESBURG FLIGHT SERVICE STATION
Attendance: UNATNDD
Wind indicator: yes
Segmented circle: no

Airport Communications

WX AWOS-3 at OKV (10 nm W): 124.85 (540-662-6970)
WX ASOS at MRB (17 nm N): 119.925 (304-264-0988)
WX AWOS-3 at JYO (17 nm E): 125.225 (703-777-3781)
WX AWOS-3 at FRR (20 nm SW): 121.85 (540-635-5377)

Nearby radio navigation aids

VOR radial/distance  VOR name  Freq  Var
MRBr200/16.0MARTINSBURG VORTAC112.1007W
LDNr045/20.9LINDEN VORTAC114.3006W
AMLr306/24.2ARMEL VOR/DME113.5008W
CSNr001/29.2CASANOVA VORTAC116.3006W
FDKr244/(30.8)FREDERICK VOR109.0008W
HGRr192/(34.5)HAGERSTOWN VOR109.8007W

 
NDB name  Hdg/Dist  Freq  Var  ID
CAVERNS054/36.124509WLUA .-.. ..- .-
GEORGETOWN296/39.132309WGTN --. - -.

Airport Services

Runway Information

Runway 3/21

Dimensions: 1500 x 60 ft. / 457 x 18 m
Surface: turf
RUNWAY 3  RUNWAY 21
Traffic pattern: leftleft

Airport Ownership and Management from official FAA records

Ownership: Privately-owned
Owner: RICHARD D. & MARIE T. NEWMAN
6211 WINNEBAGO ROAD
BETHESDA, MD 20816
Phone 301-229-8488
Manager: RICHARD D. & MARIE T. NEWMAN
6211 WINNEBAGO ROAD
BETHESDA, MD 20816
Phone 301-229-8488

Airport Operational Statistics

Aircraft based on the field: 1
Single engine airplanes: 1
    

Additional Remarks

FOR CD CTC POTOMAC APCH AT 866-709-4993.

Instrument Procedures

There are no published instrument procedures at 01VA.

Some nearby airports with instrument procedures:

9VA5 - Bluegrass Heliport (4 nm SE)
2VG2 - Upperville Airport (10 nm S)
KOKV - Winchester Regional Airport (10 nm W)
KMRB - Eastern WV Regional Airport/Shepherd Field (17 nm N)
KJYO - Leesburg Executive Airport (17 nm E)
KFRR - Front Royal-Warren County Airport (20 nm SW)
 
Loc | Ops | Rwys | IFR | FBO | Links
Com | Nav | Svcs | Stats | Notes
Area around 01VA (Pickles Airport)
 
Road maps at: MapQuest Bing Google
 
Aerial photo
WARNING: Photo may not be current or correct
Aerial photo of 01VA (Pickles Airport)
Photo by Steve Beste
Photo taken 25-Jul-2020
looking north.

Do you have a better or more recent aerial photo of Pickles Airport that you would like to share? If so, please send us your photo.

 
Sectional chart

 
Airport distance calculator
Flying to Pickles Airport? Find the distance to fly.

From to 01VA

Sunrise and sunset
Times for 16-May-2021
 Local
(UTC-4)
 Zulu
(UTC)
Morning civil twilight05:2809:28
Sunrise05:5909:59
Sunset20:1700:17
Evening civil twilight20:4800:48

Current date and time
Zulu (UTC)  17-May-2021 00:04:43
Local (UTC-4)  16-May-2021 20:04:43
 
METAR
KOKV 
10nm W 
162355Z AUTO 10003KT 10SM BKN100 13/11 A3024 RMK AO2
KMRB 
17nm N 
162353Z AUTO 00000KT 10SM CLR 14/09 A3024 RMK AO2 SLP242 60000 T01440089 10150 20139 58004
KJYO 
17nm E 
162355Z AUTO 05005KT 10SM OVC070 15/11 A3027 RMK AO2
KFRR 
20nm SW 
162355Z AUTO 00000KT 10SM SCT085 14/12 A3025 RMK AO1
TAF
KMRB 
17nm N 
161728Z 1618/1718 26008KT P6SM -SHRA OVC070 FM170000 VRB03KT P6SM BKN060 FM170600 00000KT 4SM BR BKN080 FM170800 00000KT 2SM BR BKN080 FM171000 00000KT 1 1/2SM BR BKN015 FM171300 00000KT 3SM BR BKN020 FM171500 VRB03KT P6SM BKN025 FM171600 VRB03KT P6SM BKN045
NOTAMs
Click for the latest NOTAMs
NOTAMs are issued by the DoD/FAA and will open in a separate window not controlled by AirNav.

 

 
 

Would you like to see your business listed on this page?

 If your business provides an interesting product or service to pilots, flight crews, aircraft, or users of the Pickles Airport, you should consider listing it here.  To start the listing process, click on the button below
 
Add a business
 

Other Pages about Pickles Airport

Update a link
 
Copyright © AirNav, LLC. All rights reserved. Privacy Policy  Contact